Time;durP1;ratioP1;P1;durP2;ratioP2;P2;SDS_P1;SDS_P2;PMS_P1;PMS_P2;Temp;Humidity;BMP_temperature;BMP_pressure;BME280_temperature;BME280_humidity;BME280_pressure;Samples;Min_cycle;Max_cycle;Signal;HPM_P1;HPM_P2
2023/01/25 00:02:01;;;;;;;1985.57;451.30;;;2.20;99.90;;;;;;5021770;28;20262;-51
2023/01/25 00:04:31;;;;;;;252.33;114.63;;;2.30;99.90;;;;;;5031120;28;20209;-52
2023/01/25 00:06:59;;;;;;;117.93;83.43;;;2.30;99.90;;;;;;5032264;28;20300;-51
2023/01/25 00:09:27;;;;;;;76.07;61.47;;;2.30;99.90;;;;;;5031174;28;20249;-52
2023/01/25 00:11:57;;;;;;;189.63;92.70;;;2.20;99.90;;;;;;5031162;28;20253;-52
2023/01/25 00:14:25;;;;;;;221.97;79.93;;;2.30;99.90;;;;;;5024142;28;20245;-51
2023/01/25 00:16:53;;;;;;;187.70;77.63;;;2.30;99.90;;;;;;5030988;28;20238;-52
2023/01/25 00:19:22;;;;;;;116.07;89.53;;;2.30;99.90;;;;;;5031699;28;20268;-51
2023/01/25 00:21:52;;;;;;;80.30;61.60;;;2.20;99.90;;;;;;5030575;28;20749;-52
2023/01/25 00:24:21;;;;;;;198.03;103.03;;;2.20;99.90;;;;;;5022909;28;20302;-52
2023/01/25 00:26:50;;;;;;;107.73;70.90;;;2.20;99.90;;;;;;5030930;28;20901;-51
2023/01/25 00:29:18;;;;;;;139.57;81.17;;;2.20;99.90;;;;;;5031294;28;20290;-51
2023/01/25 00:31:55;;;;;;;51.17;38.37;;;2.20;99.90;;;;;;5020290;28;20289;-52
2023/01/25 00:34:45;;;;;;;78.43;63.47;;;2.20;99.90;;;;;;5031209;28;20220;-52
2023/01/25 00:37:24;;;;;;;98.93;69.07;;;2.20;99.90;;;;;;5030989;28;20548;-52
2023/01/25 00:39:52;;;;;;;82.23;65.60;;;2.20;99.90;;;;;;5031161;28;20230;-52
2023/01/25 00:42:21;;;;;;;82.87;49.20;;;2.20;99.90;;;;;;5030369;28;20284;-52
2023/01/25 00:44:49;;;;;;;165.73;86.37;;;2.30;99.90;;;;;;5030958;28;20747;-52
2023/01/25 00:47:18;;;;;;;1999.90;870.10;;;2.30;99.90;;;;;;5030707;28;20231;-52
2023/01/25 00:49:46;;;;;;;1416.13;266.93;;;2.30;99.90;;;;;;5030868;28;20242;-51
2023/01/25 00:52:17;;;;;;;1232.33;375.27;;;2.20;99.90;;;;;;5030309;28;20264;-51
2023/01/25 00:54:45;;;;;;;470.93;124.20;;;2.10;99.90;;;;;;5030831;28;20241;-52
2023/01/25 00:57:13;;;;;;;169.43;78.93;;;2.00;99.90;;;;;;5030457;28;20650;-52
2023/01/25 00:59:43;;;;;;;388.50;94.60;;;2.10;99.90;;;;;;5030635;28;20313;-51
2023/01/25 01:02:11;;;;;;;1236.23;258.47;;;2.10;99.90;;;;;;5029904;28;20256;-52
2023/01/25 01:04:39;;;;;;;159.07;111.13;;;2.20;99.90;;;;;;5030641;28;20206;-50
2023/01/25 01:07:08;;;;;;;114.37;61.63;;;2.10;99.90;;;;;;5030619;28;20238;-52
2023/01/25 01:09:37;;;;;;;1966.63;317.23;;;2.10;99.90;;;;;;5016835;28;20218;-52
2023/01/25 01:12:05;;;;;;;590.43;244.40;;;2.10;99.90;;;;;;5029984;28;20255;-52
2023/01/25 01:14:33;;;;;;;254.43;113.87;;;2.10;99.90;;;;;;5030004;28;20293;-52
2023/01/25 01:17:01;;;;;;;129.83;65.93;;;2.10;99.90;;;;;;5030515;28;20298;-52
2023/01/25 01:19:29;;;;;;;307.90;123.57;;;2.10;99.90;;;;;;5030090;28;20231;-52
2023/01/25 01:21:57;;;;;;;118.00;87.73;;;2.00;99.90;;;;;;5021740;28;20320;-52
2023/01/25 01:24:25;;;;;;;69.07;49.53;;;2.10;99.90;;;;;;5030300;28;20303;-52
2023/01/25 01:26:55;;;;;;;297.90;111.77;;;2.10;99.90;;;;;;5028315;28;20301;-52
2023/01/25 01:29:23;;;;;;;67.30;46.30;;;2.20;99.90;;;;;;5023930;28;20315;-51
2023/01/25 01:31:52;;;;;;;563.37;210.23;;;2.20;99.90;;;;;;5026630;28;20278;-51
2023/01/25 01:34:20;;;;;;;745.73;183.00;;;2.10;99.90;;;;;;5029571;28;20707;-52
2023/01/25 01:36:48;;;;;;;637.10;216.30;;;2.10;99.90;;;;;;5029755;28;20207;-51
2023/01/25 01:39:16;;;;;;;389.83;126.13;;;2.00;99.90;;;;;;5018940;28;20309;-52
2023/01/25 01:41:44;;;;;;;273.67;80.90;;;2.10;99.90;;;;;;5029431;28;20309;-51
2023/01/25 01:44:18;;;;;;;92.90;67.13;;;2.10;99.90;;;;;;5029933;28;20620;-52
2023/01/25 01:46:52;;;;;;;90.90;68.13;;;2.10;99.90;;;;;;5018157;28;20219;-52
2023/01/25 01:49:24;;;;;;;67.33;46.40;;;2.20;99.90;;;;;;5016631;28;20658;-52
2023/01/25 01:51:57;;;;;;;296.93;105.27;;;2.20;99.90;;;;;;5024002;28;20258;-51
2023/01/25 01:54:29;;;;;;;74.93;53.47;;;2.10;99.90;;;;;;5023650;28;20712;-51
2023/01/25 01:57:00;;;;;;;66.07;40.10;;;2.20;99.90;;;;;;5023631;28;20242;-51
2023/01/25 01:59:33;;;;;;;71.00;51.73;;;2.20;99.90;;;;;;5029399;28;20222;-52
2023/01/25 02:02:02;;;;;;;1199.97;320.07;;;2.10;99.90;;;;;;5029107;28;20326;-51
2023/01/25 02:04:30;;;;;;;435.03;157.77;;;2.20;99.90;;;;;;5029529;28;20206;-51
2023/01/25 02:07:02;;;;;;;421.77;179.07;;;2.10;99.90;;;;;;5023550;28;20242;-52
2023/01/25 02:09:33;;;;;;;559.60;151.47;;;2.10;99.90;;;;;;5028367;28;20238;-52
2023/01/25 02:12:02;;;;;;;104.67;88.73;;;2.00;99.90;;;;;;5023317;28;20313;-52
2023/01/25 02:14:32;;;;;;;70.53;62.97;;;1.90;99.90;;;;;;5029356;28;20287;-52
2023/01/25 02:17:01;;;;;;;114.17;86.03;;;1.90;99.90;;;;;;5029310;28;20683;-52
2023/01/25 02:19:42;;;;;;;93.90;63.57;;;1.90;99.90;;;;;;5029339;28;20272;-51
2023/01/25 02:22:17;;;;;;;106.80;62.73;;;1.90;99.90;;;;;;5029316;28;20388;-52
2023/01/25 02:24:53;;;;;;;1425.40;235.00;;;1.90;99.90;;;;;;5027851;28;20259;-51
2023/01/25 02:27:23;;;;;;;83.47;74.83;;;1.90;99.90;;;;;;5029398;28;20305;-52
2023/01/25 02:29:51;;;;;;;335.63;133.63;;;2.00;99.90;;;;;;5029322;28;20317;-52
2023/01/25 02:32:19;;;;;;;255.97;93.73;;;2.00;99.90;;;;;;5028807;28;20308;-52
2023/01/25 02:34:47;;;;;;;72.33;54.03;;;1.90;99.90;;;;;;5029172;28;20245;-51
2023/01/25 02:37:15;;;;;;;100.73;67.47;;;1.90;99.90;;;;;;5028224;28;20237;-51
2023/01/25 02:39:44;;;;;;;105.03;70.97;;;1.90;99.90;;;;;;5029395;28;20272;-52
2023/01/25 02:42:12;;;;;;;78.70;40.83;;;1.90;99.90;;;;;;5028589;28;20313;-52
2023/01/25 02:44:42;;;;;;;91.77;68.47;;;1.90;99.90;;;;;;5021577;28;20604;-52
2023/01/25 02:47:10;;;;;;;98.73;52.50;;;2.00;99.90;;;;;;5026053;28;20203;-52
2023/01/25 02:49:38;;;;;;;217.43;81.70;;;1.90;99.90;;;;;;5029099;28;20229;-51
2023/01/25 02:52:06;;;;;;;94.20;80.13;;;2.00;99.90;;;;;;5028799;28;20260;-52
2023/01/25 02:54:34;;;;;;;115.27;65.03;;;2.00;99.90;;;;;;5028936;28;20234;-52
2023/01/25 02:57:02;;;;;;;205.93;78.93;;;2.00;99.90;;;;;;5028852;28;20256;-52
2023/01/25 02:59:30;;;;;;;138.97;49.77;;;2.00;99.90;;;;;;5029025;28;20250;-51
2023/01/25 03:02:01;;;;;;;91.63;63.30;;;1.90;99.90;;;;;;5028680;28;20253;-52
2023/01/25 03:04:29;;;;;;;52.40;38.40;;;1.90;99.90;;;;;;5028809;28;20264;-52
2023/01/25 03:06:57;;;;;;;110.77;66.83;;;2.00;99.90;;;;;;5028408;28;20206;-52
2023/01/25 03:09:25;;;;;;;79.50;52.70;;;2.00;99.90;;;;;;5028618;28;20619;-52
2023/01/25 03:11:53;;;;;;;64.87;47.20;;;2.00;99.90;;;;;;5028696;28;20337;-51
2023/01/25 03:14:21;;;;;;;68.33;48.80;;;2.00;99.90;;;;;;5028713;28;20293;-51
2023/01/25 03:16:49;;;;;;;111.13;68.80;;;2.10;99.90;;;;;;5028602;28;20301;-51
2023/01/25 03:19:18;;;;;;;69.67;57.87;;;2.10;99.90;;;;;;5028580;28;20791;-52
2023/01/25 03:21:47;;;;;;;63.07;47.47;;;2.00;99.90;;;;;;5028390;28;20218;-52
2023/01/25 03:24:15;;;;;;;1529.70;328.87;;;2.10;99.90;;;;;;5029008;28;20266;-52
2023/01/25 03:29:29;;;;;;;1999.90;785.30;;;2.10;99.90;;;;;;5036824;28;20249;-52
2023/01/25 03:31:57;;;;;;;403.37;231.90;;;2.10;99.90;;;;;;5028494;28;20267;-51
2023/01/25 03:34:26;;;;;;;101.97;66.20;;;2.00;99.90;;;;;;5023977;28;20218;-52
2023/01/25 03:36:54;;;;;;;1929.77;493.17;;;1.90;99.90;;;;;;5025937;28;20209;-52
2023/01/25 03:39:22;;;;;;;1239.77;237.73;;;1.80;99.90;;;;;;5032680;28;20266;-51
2023/01/25 03:41:50;;;;;;;220.90;110.70;;;1.80;99.90;;;;;;5032042;28;20230;-52
2023/01/25 03:44:18;;;;;;;170.97;90.33;;;1.80;99.90;;;;;;5020404;28;20207;-52
2023/01/25 03:46:46;;;;;;;234.80;136.30;;;1.80;99.90;;;;;;5032370;28;20238;-52
2023/01/25 03:49:15;;;;;;;333.70;91.23;;;1.80;99.90;;;;;;5032178;28;20271;-51
2023/01/25 03:51:44;;;;;;;889.60;295.83;;;1.80;99.90;;;;;;5031984;28;20269;-52
2023/01/25 03:54:12;;;;;;;264.13;80.67;;;1.90;99.90;;;;;;5031753;28;20267;-51
2023/01/25 03:56:40;;;;;;;456.20;131.70;;;1.80;99.90;;;;;;5025435;28;20302;-52
2023/01/25 03:59:10;;;;;;;166.73;95.10;;;1.70;99.90;;;;;;5031875;28;20294;-51
2023/01/25 04:01:38;;;;;;;60.13;42.47;;;1.70;99.90;;;;;;5031758;28;20291;-51
2023/01/25 04:04:06;;;;;;;142.93;82.40;;;1.80;99.90;;;;;;5031537;28;20215;-52
2023/01/25 04:06:34;;;;;;;630.83;187.73;;;1.80;99.90;;;;;;5032318;28;20236;-50
2023/01/25 04:09:04;;;;;;;92.00;78.90;;;1.80;99.90;;;;;;5031264;28;20214;-51
2023/01/25 04:11:32;;;;;;;246.10;109.10;;;1.70;99.90;;;;;;5031509;28;20312;-52
2023/01/25 04:14:00;;;;;;;157.53;85.77;;;1.70;99.90;;;;;;5031603;28;20293;-51
2023/01/25 04:16:30;;;;;;;100.97;59.47;;;1.70;99.90;;;;;;5028147;28;20199;-52
2023/01/25 04:18:58;;;;;;;106.77;75.90;;;1.70;99.90;;;;;;5031468;28;20225;-52
2023/01/25 04:21:26;;;;;;;113.30;65.27;;;1.70;99.90;;;;;;5030686;28;20317;-51
2023/01/25 04:23:54;;;;;;;85.17;42.53;;;1.80;99.90;;;;;;5031281;28;20288;-52
2023/01/25 04:26:24;;;;;;;786.97;208.63;;;1.80;99.90;;;;;;5031236;28;20217;-52
2023/01/25 04:28:52;;;;;;;75.13;42.03;;;1.80;99.90;;;;;;5031448;28;20299;-52
2023/01/25 04:31:20;;;;;;;258.03;111.40;;;1.90;99.90;;;;;;5031459;28;20811;-51
2023/01/25 04:33:49;;;;;;;186.10;107.53;;;1.90;99.90;;;;;;5030698;28;20285;-52
2023/01/25 04:36:18;;;;;;;1349.43;334.23;;;1.80;99.90;;;;;;5031411;28;20293;-52
2023/01/25 04:38:46;;;;;;;152.17;98.93;;;1.60;99.90;;;;;;5030391;28;20740;-52
2023/01/25 04:41:14;;;;;;;179.23;97.97;;;1.60;99.90;;;;;;5030862;28;20339;-52
2023/01/25 04:43:43;;;;;;;364.77;122.50;;;1.60;99.90;;;;;;5030690;28;20272;-51
2023/01/25 04:46:12;;;;;;;136.73;70.43;;;1.60;99.90;;;;;;5032559;28;20213;-52
2023/01/25 04:48:40;;;;;;;95.80;61.67;;;1.60;99.90;;;;;;5031121;28;20244;-52
2023/01/25 04:51:08;;;;;;;73.67;35.67;;;1.60;99.90;;;;;;5032310;28;20976;-52
2023/01/25 04:53:36;;;;;;;73.30;47.00;;;1.80;99.90;;;;;;5031603;28;20237;-52
2023/01/25 04:56:05;;;;;;;137.13;68.57;;;1.80;99.90;;;;;;5032384;28;20231;-52
2023/01/25 04:58:33;;;;;;;190.40;71.27;;;1.80;99.90;;;;;;5030913;28;20245;-51
2023/01/25 05:01:03;;;;;;;88.20;35.83;;;1.80;99.90;;;;;;5030426;28;20265;-52
2023/01/25 05:03:31;;;;;;;172.10;71.17;;;1.80;99.90;;;;;;5029933;28;20206;-52
2023/01/25 05:05:59;;;;;;;90.80;60.87;;;1.70;99.90;;;;;;5028707;28;20680;-52
2023/01/25 05:08:27;;;;;;;157.37;61.90;;;1.70;99.90;;;;;;5021130;28;20298;-52
2023/01/25 05:10:55;;;;;;;130.63;64.43;;;1.80;99.90;;;;;;5024494;28;20325;-51
2023/01/25 05:13:23;;;;;;;84.13;58.50;;;1.80;99.90;;;;;;5030077;28;20218;-52
2023/01/25 05:15:51;;;;;;;115.47;87.80;;;1.80;99.90;;;;;;5030386;28;20676;-52
2023/01/25 05:18:20;;;;;;;141.70;98.33;;;1.80;99.90;;;;;;5030248;28;20672;-52
2023/01/25 05:20:53;;;;;;;60.57;37.83;;;1.80;99.90;;;;;;5029848;28;20310;-52
2023/01/25 05:23:21;;;;;;;95.53;72.07;;;1.80;99.90;;;;;;5030068;28;20676;-52
2023/01/25 05:28:34;;;;;;;204.67;78.00;;;1.80;99.90;;;;;;5022151;28;20284;-52
2023/01/25 05:31:03;;;;;;;83.63;68.87;;;1.80;99.90;;;;;;5029674;28;20723;-52
2023/01/25 05:33:33;;;;;;;143.53;88.27;;;1.80;99.90;;;;;;5029971;28;20252;-52
2023/01/25 05:36:01;;;;;;;152.77;75.37;;;1.80;99.90;;;;;;5030266;28;20274;-52
2023/01/25 05:38:30;;;;;;;74.53;46.80;;;1.70;99.90;;;;;;5029583;28;20210;-51
2023/01/25 05:40:58;;;;;;;146.77;78.20;;;1.60;99.90;;;;;;5022903;28;20335;-52
2023/01/25 05:43:26;;;;;;;111.10;47.53;;;1.60;99.90;;;;;;5029442;28;20239;-52
2023/01/25 05:45:54;;;;;;;92.83;48.83;;;1.60;99.90;;;;;;5029801;28;20897;-51
2023/01/25 05:48:22;;;;;;;90.10;41.10;;;1.70;99.90;;;;;;5029916;28;20219;-52
2023/01/25 05:50:51;;;;;;;108.77;87.07;;;1.70;99.90;;;;;;5029794;28;20316;-52
2023/01/25 05:53:25;;;;;;;394.73;106.97;;;1.80;99.90;;;;;;5029535;28;20841;-52
2023/01/25 05:55:53;;;;;;;83.57;46.93;;;1.80;99.90;;;;;;5029592;28;20207;-51
2023/01/25 05:58:21;;;;;;;205.87;58.77;;;1.80;99.90;;;;;;5029725;28;20292;-50
2023/01/25 06:00:49;;;;;;;116.83;85.83;;;1.80;99.90;;;;;;5026135;28;20314;-51
2023/01/25 06:03:17;;;;;;;75.93;64.03;;;1.70;99.90;;;;;;5029487;28;20721;-51
2023/01/25 06:05:45;;;;;;;55.73;48.77;;;1.70;99.90;;;;;;5029390;28;20738;-51
2023/01/25 06:08:14;;;;;;;76.70;67.27;;;1.70;99.90;;;;;;5029370;28;20297;-52
2023/01/25 06:10:42;;;;;;;48.30;37.80;;;1.70;99.90;;;;;;5024630;28;20273;-51
2023/01/25 06:13:10;;;;;;;119.83;93.90;;;1.70;99.90;;;;;;5029348;28;20210;-52
2023/01/25 06:15:38;;;;;;;66.53;45.23;;;1.70;99.90;;;;;;5029469;28;20214;-50
2023/01/25 06:18:06;;;;;;;46.33;37.33;;;1.60;99.90;;;;;;5029257;28;20243;-52
2023/01/25 06:20:34;;;;;;;102.00;60.00;;;1.60;99.90;;;;;;5028970;28;20678;-52
2023/01/25 06:23:02;;;;;;;85.07;44.80;;;1.50;99.90;;;;;;5029333;28;20258;-51
2023/01/25 06:25:31;;;;;;;83.83;75.80;;;1.50;99.90;;;;;;5029388;28;20295;-51
2023/01/25 06:28:00;;;;;;;119.27;70.13;;;1.50;99.90;;;;;;5029082;28;20695;-50
2023/01/25 06:30:28;;;;;;;200.03;120.63;;;1.50;99.90;;;;;;5028998;28;20231;-52
2023/01/25 06:32:58;;;;;;;612.10;202.00;;;1.50;99.90;;;;;;5028822;28;20211;-52
2023/01/25 06:35:27;;;;;;;999.43;230.50;;;1.50;99.90;;;;;;5029118;28;20205;-51
2023/01/25 06:37:56;;;;;;;268.17;110.00;;;1.60;99.90;;;;;;5029420;28;20272;-51
2023/01/25 06:40:24;;;;;;;214.63;79.87;;;1.50;99.90;;;;;;5028981;28;20285;-52
2023/01/25 06:42:54;;;;;;;94.47;79.73;;;1.50;99.90;;;;;;5028869;28;20239;-51
2023/01/25 06:45:22;;;;;;;80.67;46.23;;;1.50;99.90;;;;;;5029113;28;20211;-52
2023/01/25 06:47:50;;;;;;;61.87;44.40;;;1.50;99.90;;;;;;5029019;28;20878;-52
2023/01/25 06:50:19;;;;;;;92.43;82.37;;;1.50;99.90;;;;;;5028946;28;20214;-52
2023/01/25 06:52:52;;;;;;;76.27;68.17;;;1.50;99.90;;;;;;5028808;28;20983;-51
2023/01/25 06:55:20;;;;;;;970.10;295.53;;;1.50;99.90;;;;;;5020564;28;20253;-53
2023/01/25 06:57:48;;;;;;;592.00;272.90;;;1.60;99.90;;;;;;5029280;28;20242;-53
2023/01/25 07:00:19;;;;;;;90.80;81.67;;;1.60;99.90;;;;;;5029226;28;20267;-51
2023/01/25 07:02:47;;;;;;;97.70;88.20;;;1.50;99.90;;;;;;5026732;28;20264;-53
2023/01/25 07:05:16;;;;;;;652.43;231.40;;;1.50;99.90;;;;;;5021429;28;20701;-53
2023/01/25 07:07:45;;;;;;;79.77;71.60;;;1.50;99.90;;;;;;5028300;28;20245;-53
2023/01/25 07:10:13;;;;;;;76.70;62.20;;;1.50;99.90;;;;;;5028796;28;20937;-52
2023/01/25 07:12:41;;;;;;;78.73;46.60;;;1.40;99.90;;;;;;5021599;28;20373;-53
2023/01/25 07:15:10;;;;;;;90.67;81.43;;;1.40;99.90;;;;;;5032884;28;20240;-52
2023/01/25 07:17:40;;;;;;;187.80;96.73;;;1.30;99.90;;;;;;5028775;28;20679;-52
2023/01/25 07:20:09;;;;;;;1531.33;420.03;;;1.40;99.90;;;;;;5032737;28;20365;-52
2023/01/25 07:22:37;;;;;;;49.00;41.43;;;1.50;99.90;;;;;;5032493;28;20643;-52
2023/01/25 07:25:06;;;;;;;192.20;110.70;;;1.50;99.90;;;;;;5032680;28;20297;-52
2023/01/25 07:27:35;;;;;;;305.37;182.23;;;1.40;99.90;;;;;;5032412;28;20215;-53
2023/01/25 07:30:03;;;;;;;53.23;42.50;;;1.40;99.90;;;;;;5019326;28;20241;-52
2023/01/25 07:32:31;;;;;;;261.53;132.43;;;1.40;99.90;;;;;;5032463;28;20365;-52
2023/01/25 07:35:01;;;;;;;161.47;112.77;;;1.40;99.90;;;;;;5032173;28;20908;-52
2023/01/25 07:37:29;;;;;;;85.17;76.37;;;1.40;99.90;;;;;;5031652;28;20253;-52
2023/01/25 07:39:57;;;;;;;101.33;75.57;;;1.40;99.90;;;;;;5032372;28;20214;-52
2023/01/25 07:42:25;;;;;;;233.67;153.37;;;1.50;99.90;;;;;;5032185;28;20321;-52
2023/01/25 07:44:53;;;;;;;255.70;152.60;;;1.40;99.90;;;;;;5032390;28;20245;-51
2023/01/25 07:47:21;;;;;;;1657.57;354.53;;;1.50;99.90;;;;;;5032015;28;20205;-51
2023/01/25 07:49:49;;;;;;;102.00;77.37;;;1.50;99.90;;;;;;5032221;28;20297;-52
2023/01/25 07:52:18;;;;;;;42.07;33.67;;;1.50;99.90;;;;;;5031877;28;20699;-52
2023/01/25 07:54:48;;;;;;;73.50;61.33;;;1.50;99.90;;;;;;5032467;28;20203;-51
2023/01/25 07:57:16;;;;;;;54.10;38.33;;;1.50;99.90;;;;;;5031801;28;20681;-52
2023/01/25 07:59:44;;;;;;;99.63;89.80;;;1.50;99.90;;;;;;5032411;28;20264;-52
2023/01/25 08:02:12;;;;;;;82.17;74.43;;;1.50;99.90;;;;;;5031420;28;20277;-51
2023/01/25 08:04:41;;;;;;;570.17;151.37;;;1.50;99.90;;;;;;5026443;28;20233;-52
2023/01/25 08:07:09;;;;;;;47.37;41.03;;;1.60;99.90;;;;;;5029966;28;20238;-52
2023/01/25 08:09:39;;;;;;;94.53;68.43;;;1.50;99.90;;;;;;5017763;28;20220;-51
2023/01/25 08:12:07;;;;;;;107.77;84.27;;;1.40;99.90;;;;;;5031368;28;20288;-52
2023/01/25 08:14:37;;;;;;;69.33;61.87;;;1.40;99.90;;;;;;5028229;28;20359;-51
2023/01/25 08:17:05;;;;;;;146.33;130.80;;;1.50;99.90;;;;;;5031641;28;20210;-52
2023/01/25 08:19:33;;;;;;;123.13;111.27;;;1.40;99.90;;;;;;5019045;28;20206;-52
2023/01/25 08:22:01;;;;;;;59.03;44.30;;;1.40;99.90;;;;;;5027552;28;20258;-53
2023/01/25 08:24:29;;;;;;;61.10;43.33;;;1.40;99.90;;;;;;5030693;28;20235;-53
2023/01/25 08:26:58;;;;;;;176.03;134.03;;;1.50;99.90;;;;;;5031268;28;21035;-52
2023/01/25 08:29:27;;;;;;;220.40;135.57;;;1.50;99.90;;;;;;5031588;28;20206;-52
2023/01/25 08:31:55;;;;;;;75.50;63.87;;;1.60;99.90;;;;;;5031320;28;20222;-53
2023/01/25 08:34:23;;;;;;;109.27;98.83;;;1.60;99.90;;;;;;5031109;28;20817;-51
2023/01/25 08:36:52;;;;;;;249.60;131.17;;;1.60;99.90;;;;;;5031156;28;20210;-51
2023/01/25 08:39:20;;;;;;;103.10;88.93;;;1.60;99.90;;;;;;5031279;28;20710;-51
2023/01/25 08:41:48;;;;;;;91.33;81.50;;;1.60;99.90;;;;;;5030832;28;20281;-52
2023/01/25 08:44:21;;;;;;;63.03;50.03;;;1.50;99.90;;;;;;5031296;28;20301;-52
2023/01/25 08:46:49;;;;;;;107.67;61.67;;;1.60;99.90;;;;;;5030895;28;20654;-52
2023/01/25 08:49:17;;;;;;;336.73;116.70;;;1.60;99.90;;;;;;5030533;28;20237;-52
2023/01/25 08:51:46;;;;;;;197.87;85.80;;;1.50;99.90;;;;;;5025669;28;20262;-52
2023/01/25 08:54:14;;;;;;;134.07;109.67;;;1.50;99.90;;;;;;5030302;28;20206;-53
2023/01/25 08:56:42;;;;;;;97.03;73.20;;;1.50;99.90;;;;;;5030633;28;20321;-52
2023/01/25 08:59:12;;;;;;;139.30;72.30;;;1.50;99.90;;;;;;5030857;28;20243;-52
2023/01/25 09:01:41;;;;;;;73.97;52.73;;;1.50;99.90;;;;;;5030065;28;20739;-52
2023/01/25 09:04:09;;;;;;;65.10;56.10;;;1.60;99.90;;;;;;5030290;28;20579;-52
2023/01/25 09:06:37;;;;;;;65.67;53.93;;;1.60;99.90;;;;;;5020457;28;20207;-52
2023/01/25 09:09:07;;;;;;;116.33;69.13;;;1.60;99.90;;;;;;5030117;28;20206;-52
2023/01/25 09:11:36;;;;;;;102.70;77.27;;;1.70;99.90;;;;;;5030454;28;20249;-52
2023/01/25 09:14:05;;;;;;;216.77;88.40;;;1.70;99.90;;;;;;5029317;28;20266;-52
2023/01/25 09:16:33;;;;;;;52.67;34.37;;;1.60;99.90;;;;;;5029475;28;20597;-52
2023/01/25 09:19:04;;;;;;;102.37;91.13;;;1.60;99.90;;;;;;5030536;28;20242;-52
2023/01/25 09:21:34;;;;;;;95.83;85.63;;;1.70;99.90;;;;;;5030337;28;20750;-53
2023/01/25 09:24:02;;;;;;;84.40;58.27;;;1.70;99.90;;;;;;5030206;28;20254;-53
2023/01/25 09:26:36;;;;;;;123.03;49.50;;;1.80;99.90;;;;;;5030328;28;20233;-52
2023/01/25 09:29:06;;;;;;;63.03;54.17;;;1.80;99.90;;;;;;5027217;28;20680;-52
2023/01/25 09:31:38;;;;;;;69.40;40.47;;;1.90;99.90;;;;;;5028773;28;20223;-53
2023/01/25 09:34:10;;;;;;;113.93;82.67;;;1.90;99.90;;;;;;5029440;28;20215;-53
2023/01/25 09:36:38;;;;;;;126.03;100.77;;;1.90;99.90;;;;;;5030072;28;20305;-53
2023/01/25 09:39:06;;;;;;;248.20;76.23;;;1.80;99.90;;;;;;5029656;28;20210;-53
2023/01/25 09:41:59;;;;;;;110.03;83.30;;;1.70;99.90;;;;;;5030315;28;20230;-52
2023/01/25 09:44:59;;;;;;;251.70;113.57;;;1.70;99.90;;;;;;5020441;28;20206;-53
2023/01/25 09:47:34;;;;;;;73.97;49.37;;;1.70;99.90;;;;;;5018537;28;20240;-53
2023/01/25 09:50:19;;;;;;;75.07;43.73;;;1.70;99.90;;;;;;5029808;28;20267;-52
2023/01/25 09:53:11;;;;;;;311.57;121.63;;;1.70;99.90;;;;;;5029511;28;20240;-51
2023/01/25 09:55:40;;;;;;;167.97;127.30;;;1.80;99.90;;;;;;5029288;28;20205;-52
2023/01/25 09:58:14;;;;;;;84.80;57.33;;;1.80;99.90;;;;;;5028247;28;20218;-53
2023/01/25 10:00:46;;;;;;;103.63;44.83;;;1.80;99.90;;;;;;5026221;28;20233;-52
2023/01/25 10:03:22;;;;;;;99.17;81.87;;;1.80;99.90;;;;;;5029114;28;20225;-52
2023/01/25 10:05:54;;;;;;;134.60;81.23;;;1.90;99.90;;;;;;5029213;28;20259;-53
2023/01/25 10:08:29;;;;;;;170.87;89.30;;;2.00;99.90;;;;;;5022181;28;20325;-52
2023/01/25 10:11:04;;;;;;;162.00;54.13;;;1.90;99.90;;;;;;5027891;28;20232;-53
2023/01/25 10:13:32;;;;;;;184.13;92.87;;;1.90;99.90;;;;;;5028983;28;20234;-52
2023/01/25 10:16:04;;;;;;;70.63;32.03;;;1.70;99.90;;;;;;5028902;28;20289;-53
2023/01/25 10:18:39;;;;;;;117.63;63.20;;;1.80;99.90;;;;;;5029015;28;20210;-52
2023/01/25 10:21:18;;;;;;;159.43;73.73;;;1.90;99.90;;;;;;5028940;28;20226;-52
2023/01/25 10:24:16;;;;;;;75.80;50.27;;;2.00;99.90;;;;;;5022573;28;20313;-52
2023/01/25 10:26:50;;;;;;;266.47;96.83;;;2.00;99.90;;;;;;5014494;28;20635;-53
2023/01/25 10:29:20;;;;;;;251.53;103.47;;;2.00;99.90;;;;;;5028892;28;20250;-52
2023/01/25 10:31:52;;;;;;;273.03;132.07;;;1.80;99.90;;;;;;5015384;28;20246;-52
2023/01/25 10:34:25;;;;;;;1497.90;362.97;;;1.70;99.90;;;;;;5029127;28;20551;-53
2023/01/25 10:36:57;;;;;;;80.70;62.80;;;1.90;99.90;;;;;;5020199;28;20245;-52
2023/01/25 10:39:25;;;;;;;162.37;91.43;;;1.90;99.90;;;;;;5029235;28;20235;-52
2023/01/25 10:41:57;;;;;;;385.77;127.67;;;2.00;99.90;;;;;;5026264;28;20265;-53
2023/01/25 10:44:26;;;;;;;147.50;47.43;;;2.10;99.90;;;;;;5024562;28;20305;-52
2023/01/25 10:47:01;;;;;;;259.60;100.57;;;2.00;99.90;;;;;;5023212;28;20967;-52
2023/01/25 10:49:37;;;;;;;317.00;95.83;;;2.10;99.90;;;;;;5028331;28;20245;-53
2023/01/25 10:52:18;;;;;;;166.57;73.03;;;2.00;99.90;;;;;;5028809;28;20320;-53
2023/01/25 10:54:48;;;;;;;96.50;52.97;;;1.90;99.90;;;;;;5029213;28;20571;-52
2023/01/25 10:57:19;;;;;;;84.93;45.63;;;2.00;99.90;;;;;;5028938;28;20206;-52
2023/01/25 10:59:50;;;;;;;189.83;71.70;;;2.00;99.90;;;;;;5029183;28;20274;-52
2023/01/25 11:02:39;;;;;;;299.13;130.03;;;2.00;99.90;;;;;;5027963;28;20261;-52
2023/01/25 11:05:25;;;;;;;79.13;50.60;;;2.00;99.90;;;;;;5029134;28;20334;-52
2023/01/25 11:07:55;;;;;;;142.43;70.50;;;2.10;99.90;;;;;;5028961;28;20306;-51
2023/01/25 11:10:31;;;;;;;73.53;35.33;;;2.10;99.90;;;;;;5028434;28;20284;-52
2023/01/25 11:13:19;;;;;;;149.43;91.50;;;2.20;99.90;;;;;;5028405;28;20897;-52
2023/01/25 11:15:50;;;;;;;76.63;53.17;;;2.20;99.90;;;;;;5023905;28;20304;-52
2023/01/25 11:18:21;;;;;;;91.20;54.80;;;2.20;99.90;;;;;;5028295;28;20214;-52
2023/01/25 11:21:04;;;;;;;82.27;64.07;;;2.20;99.90;;;;;;5028216;28;20235;-53
2023/01/25 11:23:34;;;;;;;249.57;79.47;;;2.20;99.90;;;;;;5019731;28;20296;-53
2023/01/25 11:26:14;;;;;;;97.43;59.87;;;2.30;99.90;;;;;;5028153;28;20578;-53
2023/01/25 11:28:43;;;;;;;142.27;59.80;;;2.40;99.90;;;;;;5028667;28;20204;-52
2023/01/25 11:31:13;;;;;;;69.03;37.67;;;2.30;99.90;;;;;;5018058;28;20255;-52
2023/01/25 11:33:41;;;;;;;123.47;72.73;;;2.30;99.90;;;;;;5027954;28;20243;-52
2023/01/25 11:36:22;;;;;;;69.23;52.23;;;2.30;99.90;;;;;;5028706;28;20210;-52
2023/01/25 11:39:11;;;;;;;136.23;82.97;;;2.30;99.90;;;;;;5027358;28;20253;-52
2023/01/25 11:41:51;;;;;;;73.93;48.70;;;2.30;99.90;;;;;;5028139;28;20305;-52
2023/01/25 11:44:52;;;;;;;122.10;62.60;;;2.30;99.90;;;;;;5016472;28;20245;-51
2023/01/25 11:47:36;;;;;;;297.67;126.30;;;2.30;99.90;;;;;;5024328;28;20634;-52
2023/01/25 11:50:11;;;;;;;293.57;128.83;;;2.30;99.90;;;;;;5028446;28;20210;-52
2023/01/25 11:52:56;;;;;;;83.83;56.00;;;2.20;99.90;;;;;;5018391;28;20644;-51
2023/01/25 11:55:29;;;;;;;106.77;61.00;;;2.20;99.90;;;;;;5027993;28;20237;-52
2023/01/25 11:58:10;;;;;;;59.20;37.07;;;2.20;99.90;;;;;;5030487;28;20206;-52
2023/01/25 12:00:58;;;;;;;403.83;129.83;;;2.30;99.90;;;;;;5031406;28;20229;-52
2023/01/25 12:03:54;;;;;;;74.43;53.20;;;2.10;99.90;;;;;;5031405;28;20210;-51
2023/01/25 12:06:30;;;;;;;81.23;68.60;;;2.10;99.90;;;;;;5019257;28;20676;-52
2023/01/25 12:09:22;;;;;;;43.03;35.13;;;2.10;99.90;;;;;;5031859;28;20281;-52
2023/01/25 12:12:05;;;;;;;83.90;75.20;;;2.30;99.90;;;;;;5023214;28;20359;-52
2023/01/25 12:14:48;;;;;;;63.83;48.60;;;2.30;99.90;;;;;;5030428;28;20208;-51
2023/01/25 12:17:25;;;;;;;211.93;109.13;;;2.40;99.90;;;;;;5031927;28;20293;-51
2023/01/25 12:20:06;;;;;;;78.50;49.83;;;2.30;99.90;;;;;;5029206;28;20260;-52
2023/01/25 12:22:50;;;;;;;48.23;34.53;;;2.30;99.90;;;;;;5026292;28;20231;-52
2023/01/25 12:25:28;;;;;;;116.60;65.27;;;2.30;99.90;;;;;;5031280;28;20250;-52
2023/01/25 12:28:10;;;;;;;119.70;83.93;;;2.30;99.90;;;;;;5031376;28;20583;-51
2023/01/25 12:30:46;;;;;;;106.27;93.40;;;2.30;99.90;;;;;;5031351;28;20249;-52
2023/01/25 12:33:21;;;;;;;78.03;62.30;;;2.30;99.90;;;;;;5030781;28;20216;-52
2023/01/25 12:35:57;;;;;;;123.00;86.87;;;2.40;99.90;;;;;;5031219;28;20206;-51
2023/01/25 12:38:30;;;;;;;148.30;73.47;;;2.50;99.90;;;;;;5040421;28;20702;-52
2023/01/25 12:41:03;;;;;;;52.23;41.30;;;2.40;99.90;;;;;;5047935;28;20641;-52
2023/01/25 12:43:39;;;;;;;154.97;87.37;;;2.50;99.90;;;;;;5044145;28;20328;-51
2023/01/25 12:46:14;;;;;;;211.47;69.30;;;2.50;99.90;;;;;;5030981;28;20207;-52
2023/01/25 12:48:49;;;;;;;135.47;68.30;;;2.60;99.90;;;;;;5031085;28;20306;-51
2023/01/25 12:51:18;;;;;;;91.60;50.23;;;2.50;99.90;;;;;;5019924;28;20275;-52
2023/01/25 12:53:47;;;;;;;113.70;52.23;;;2.40;99.90;;;;;;5030319;28;20295;-52